Latest Weather Observations for Davis*

IDT60801

Issued at 12:02 pm EST Friday 29 July 2016 (issued every 30 minutes, with the page automatically refreshed every 10 minutes)

About weather observations | Map of weather stations | Latest weather observations for ANT | Other Formats
Station Details ID: 300000 Name: DAVIS Lat: -68.57 Lon: 77.97 Height: 18.0 m
Data from the previous 72 hours. | See also: Recent months at Davis*
Date/Time
EST
Temp
°C
App
Temp
°C
Dew
Point
°C
Rel
Hum
%
Delta-T
°C
Wind Press
QNH
hPa
Press
MSL
hPa
Rain since
9am
mm
Dir  Spd
km/h
Gust
km/h
Spd
kts
Gust
kts
29/12:00pm -11.4 -26.6 -13.4 85 - NE 63 78 34 42 984.5 - -
29/11:51am -11.3 -25.8 -13.5 84 - NE 59 78 32 42 984.4 - -
29/11:30am -11.4 -25.9 -13.6 84 - NE 59 76 32 41 984.5 - -
29/11:08am -11.5 -25.6 -13.5 85 - ENE 57 76 31 41 984.5 - -
29/11:00am -11.4 -25.9 -13.6 84 - NE 59 74 32 40 984.2 - -
29/10:30am -11.3 -24.9 -13.6 83 - NE 54 69 29 37 984.4 - -
29/10:15am -11.0 -25.1 -13.6 81 - ENE 57 76 31 41 984.2 - -
29/10:00am -11.3 -25.4 -13.5 84 - ENE 57 70 31 38 984.0 984.3 -
29/09:36am -11.3 -25.4 -13.6 83 - ENE 57 76 31 41 983.8 - -
29/09:30am -11.4 -25.5 -13.7 83 - ENE 57 70 31 38 984.2 - -
29/09:06am -11.1 -24.3 -13.7 81 - ENE 52 72 28 39 983.9 - -
29/09:00am -11.1 -24.7 -13.9 80 - ENE 54 67 29 36 983.7 - -
29/08:30am -10.9 -23.3 -13.8 79 - ENE 48 61 26 33 984.3 - -
29/08:00am -11.2 -22.3 -14.4 77 - ENE 41 57 22 31 984.5 - -
29/07:30am -11.1 -22.2 -14.6 75 - ENE 41 54 22 29 985.0 - -
29/07:05am -11.1 -22.6 -14.6 75 - NE 43 61 23 33 984.7 - -
29/07:00am -11.1 -22.8 -14.8 74 - ENE 44 61 24 33 984.7 985.0 -
29/06:30am -11.0 -20.5 -15.4 70 - NE 32 44 17 24 985.0 - -
29/06:00am -11.1 -19.4 -15.8 68 - NE 26 44 14 24 985.4 - -
29/05:30am -11.0 -17.7 -17.8 57 - E 17 24 9 13 985.7 - -
29/05:00am -11.2 -19.3 -17.6 59 - E 24 33 13 18 985.8 - -
29/04:30am -11.5 -19.1 -16.9 64 - ENE 22 30 12 16 985.9 - -
29/04:00am -12.3 -18.3 -18.4 60 - ESE 13 20 7 11 986.1 986.4 -
29/03:30am -12.8 -18.8 -18.0 65 - ESE 13 20 7 11 986.3 - -
29/03:00am -13.2 -20.5 -17.7 69 - ENE 20 22 11 12 986.5 - -
29/02:30am -13.4 -20.7 -18.2 67 - E 20 24 11 13 986.6 - -
29/02:00am -15.0 -21.8 -19.7 67 - ESE 17 20 9 11 986.8 - -
29/01:30am -15.1 -21.5 -20.2 65 - SE 15 19 8 10 986.9 - -
29/01:00am -15.5 -21.9 -20.0 68 - SSE 15 17 8 9 987.2 987.6 -
29/12:30am -15.9 -22.7 -19.9 71 - S 17 20 9 11 987.3 - -
29/12:00am -16.0 -23.2 -18.8 79 - S 19 20 10 11 987.5 - -
 
Date/Time
EST
Temp
°C
App
Temp
°C
Dew
Point
°C
Rel
Hum
%
Delta-T
°C
Wind Press
QNH
hPa
Press
MSL
hPa
Rain since
9am
mm
Dir  Spd
km/h
Gust
km/h
Spd
kts
Gust
kts
28/11:30pm -15.8 -21.8 -18.2 82 - S 13 19 7 10 987.6 - -
28/11:00pm -16.2 -22.2 -19.0 79 - S 13 15 7 8 987.9 - -
28/10:30pm -16.0 -22.8 -21.0 65 - S 17 20 9 11 988.2 - -
28/10:00pm -16.3 -22.8 -21.1 66 - S 15 19 8 10 988.2 988.6 -
28/09:30pm -17.0 -23.5 -21.5 68 - SSE 15 19 8 10 988.3 - -
28/09:00pm -17.2 -22.9 -21.5 69 - S 11 13 6 7 988.3 - -
28/08:30pm -17.4 -23.5 -22.0 67 - S 13 15 7 8 988.2 - -
28/08:00pm -17.0 -22.3 -21.0 71 - S 9 11 5 6 988.4 - -
28/07:30pm -17.0 -22.3 -21.0 71 - SSE 9 11 5 6 988.4 - -
28/07:00pm -16.6 -22.6 -19.7 77 - E 13 17 7 9 988.3 988.7 -
28/06:30pm -16.6 -22.7 -20.0 75 - ESE 13 26 7 14 988.2 - -
28/06:00pm -17.0 -23.1 -20.1 77 - E 13 17 7 9 988.1 - -
28/05:30pm -18.2 -24.7 -21.4 76 - ENE 15 17 8 9 988.0 - -
28/05:00pm -17.7 -23.8 -20.9 76 - ENE 13 15 7 8 988.2 - -
28/04:30pm -16.9 -23.0 -20.1 76 - ENE 13 15 7 8 988.3 - -
28/04:00pm -16.3 -21.6 -20.5 70 - NNE 9 17 5 9 988.6 989.0 -
28/03:30pm -16.6 -21.6 -21.8 64 - NE 7 13 4 7 988.6 - -
28/03:00pm -17.2 -22.6 -22.7 62 - SE 9 9 5 5 988.5 - -
28/02:30pm -17.0 -22.4 -22.7 61 - ESE 9 11 5 6 988.6 - -
28/02:00pm -16.9 -22.3 -22.6 61 - ESE 9 11 5 6 988.6 - -
28/01:30pm -17.3 -22.7 -22.4 64 - E 9 11 5 6 988.7 - -
28/01:00pm -17.1 -23.2 -22.1 65 - ENE 13 20 7 11 988.8 989.2 -
28/12:30pm -17.9 -24.4 -22.2 69 - ESE 15 19 8 10 989.0 - -
28/12:00pm -18.8 -25.3 -22.0 76 - ESE 15 20 8 11 989.0 - -
28/11:30am -19.2 -25.7 -22.5 75 - SE 15 20 8 11 989.3 - -
28/11:00am -19.5 -25.7 -24.9 62 - SE 13 17 7 9 989.3 - -
28/10:30am -19.8 -26.0 -26.3 56 - SE 13 15 7 8 989.5 - -
28/10:00am -19.7 -24.8 -27.2 51 - E 7 11 4 6 989.3 989.7 -
28/09:30am -19.2 -24.3 -27.0 50 - E 7 15 4 8 989.2 - -
28/09:00am -20.2 -26.5 -27.3 53 - SE 13 15 7 8 989.3 - -
28/08:30am -20.9 -26.4 -27.1 57 - SE 9 11 5 6 989.4 - -
28/08:00am -21.9 -26.8 -27.5 60 - NE 6 7 3 4 989.6 - -
28/07:30am -21.5 -26.4 -27.7 57 - ENE 6 9 3 5 989.4 - -
28/07:00am -22.4 -27.5 -28.2 59 - E 7 9 4 5 989.5 989.9 -
28/06:30am -21.8 -26.7 -27.3 61 - ENE 6 9 3 5 989.7 - -
28/06:00am -22.1 -27.2 -28.1 58 - SSE 7 11 4 6 989.6 - -
28/05:30am -21.7 -26.6 -28.1 56 - E 6 9 3 5 989.7 - -
28/05:00am -21.2 -27.5 -28.2 53 - SE 13 15 7 8 989.5 - -
28/04:30am -22.3 -27.8 -28.8 55 - E 9 13 5 7 989.6 - -
28/04:00am -21.7 -27.6 -28.3 55 - ESE 11 15 6 8 989.7 990.1 -
28/03:30am -22.3 -28.6 -28.6 57 - SE 13 13 7 7 989.7 - -
28/03:00am -22.4 -28.3 -28.7 57 - ESE 11 13 6 7 989.5 - -
28/02:30am -22.2 -27.7 -28.6 56 - ESE 9 13 5 7 989.6 - -
28/02:00am -21.9 -27.0 -28.3 56 - SE 7 9 4 5 989.8 - -
28/01:30am -22.2 -27.3 -28.2 58 - SSE 7 9 4 5 990.1 - -
28/01:00am -21.5 -26.4 -28.3 54 - S 6 9 3 5 990.1 990.5 -
28/12:30am -21.4 -26.0 -27.8 56 - WNW 4 11 2 6 990.1 - -
28/12:00am -20.3 -25.2 -27.2 54 - ESE 6 9 3 5 989.9 - -
 
Date/Time
EST
Temp
°C
App
Temp
°C
Dew
Point
°C
Rel
Hum
%
Delta-T
°C
Wind Press
QNH
hPa
Press
MSL
hPa
Rain since
9am
mm
Dir  Spd
km/h
Gust
km/h
Spd
kts
Gust
kts
27/11:30pm -18.3 -24.5 -26.8 47 - ENE 13 24 7 13 989.9 - -
27/11:00pm -20.8 -26.7 -27.0 57 - ESE 11 13 6 7 990.0 - -
27/10:30pm -20.0 -25.9 -26.5 56 - ESE 11 13 6 7 990.0 - -
27/10:00pm -20.2 -26.4 -26.7 56 - SE 13 15 7 8 990.0 990.4 -
27/09:30pm -20.3 -26.5 -26.2 59 - ESE 13 15 7 8 990.0 - -
27/09:00pm -20.5 -26.0 -25.7 63 - ESE 9 13 5 7 990.1 - -
27/08:30pm -20.4 -26.6 -25.9 61 - ESE 13 15 7 8 990.0 - -
27/08:00pm -20.5 -26.3 -25.0 67 - ESE 11 15 6 8 989.9 - -
27/07:30pm -19.7 -25.5 -24.9 63 - SSE 11 13 6 7 989.6 - -
27/07:00pm -20.0 -25.4 -25.0 64 - SE 9 11 5 6 989.4 989.8 -
27/06:30pm -19.7 -25.1 -24.1 68 - ESE 9 11 5 6 989.7 - -
27/06:00pm -19.6 -25.4 -23.3 72 - SSE 11 13 6 7 989.5 - -
27/05:30pm -19.9 -26.0 -22.7 78 - SSE 13 13 7 7 989.7 - -
27/05:00pm -19.5 -25.3 -22.5 77 - SSE 11 13 6 7 989.8 - -
27/04:30pm -19.4 -24.8 -22.7 75 - SSE 9 11 5 6 989.7 - -
27/04:00pm -19.3 -24.3 -22.4 76 - SE 7 9 4 5 989.9 990.3 -
27/03:30pm -19.3 -24.7 -22.6 75 - SE 9 11 5 6 989.8 - -
27/03:00pm -19.6 -25.0 -23.2 73 - ESE 9 11 5 6 989.9 - -
27/02:30pm -19.2 -25.0 -23.1 71 - E 11 15 6 8 989.6 - -
27/02:00pm -19.7 -25.9 -23.6 71 - ENE 13 15 7 8 989.5 - -
27/01:30pm -19.4 -25.2 -23.3 71 - E 11 13 6 7 989.3 - -
27/01:00pm -19.1 -24.5 -23.2 70 - ESE 9 11 5 6 989.2 989.6 -
27/12:30pm -18.9 -24.3 -22.5 73 - ESE 9 11 5 6 989.2 - -
27/12:00pm -19.0 -24.7 -22.0 77 - E 11 13 6 7 989.1 - -
27/11:30am -18.4 -25.3 -21.4 77 - E 17 20 9 11 989.0 - -
27/11:00am -18.6 -23.9 -21.5 78 - ESE 9 13 5 7 988.9 - -
27/10:30am -18.3 -25.2 -21.5 76 - E 17 19 9 10 988.7 - -
27/10:00am -18.3 -25.5 -21.6 75 - E 19 24 10 13 988.6 989.0 -
27/09:30am -18.2 -25.7 -22.3 70 - E 20 26 11 14 988.3 - -
27/09:00am -18.3 -26.9 -22.1 72 - E 26 33 14 18 988.0 - -
27/08:30am -18.2 -26.4 -22.0 72 - E 24 32 13 17 987.8 - -
27/08:00am -18.3 -26.1 -22.4 70 - E 22 28 12 15 987.8 - -
27/07:30am -18.3 -28.2 -22.6 69 - E 33 39 18 21 987.2 - -
27/07:00am -18.3 -30.1 -22.6 69 - E 43 48 23 26 986.6 987.0 -
27/06:30am -18.5 -30.0 -22.8 69 - E 41 48 22 26 986.5 - -
27/06:00am -18.6 -30.6 -22.7 70 - E 44 54 24 29 986.3 - -
27/05:30am -18.6 -30.4 -22.7 70 - E 43 50 23 27 986.4 - -
27/05:00am -18.8 -29.5 -22.9 70 - E 37 46 20 25 986.3 - -
27/04:30am -18.4 -27.4 -22.7 69 - E 28 35 15 19 986.5 - -
27/04:00am -18.1 -25.4 -22.4 69 - E 19 20 10 11 986.6 987.0 -
27/03:30am -18.9 -25.4 -22.3 74 - ESE 15 20 8 11 986.5 - -
27/03:00am -18.4 -25.9 -22.5 70 - ESE 20 24 11 13 986.4 - -
27/02:30am -18.6 -24.7 -22.1 74 - ESE 13 17 7 9 986.4 - -
27/02:00am -18.5 -25.4 -22.6 70 - E 17 20 9 11 986.3 - -
27/01:30am -18.5 -26.0 -23.2 66 - E 20 26 11 14 986.1 - -
27/01:00am -19.0 -26.5 -23.6 67 - ESE 20 28 11 15 985.9 986.2 -
27/12:30am -19.4 -26.7 -23.5 70 - ESE 19 24 10 13 985.8 - -
27/12:00am -18.8 -26.3 -23.4 67 - E 20 32 11 17 985.9 - -
 
Date/Time
EST
Temp
°C
App
Temp
°C
Dew
Point
°C
Rel
Hum
%
Delta-T
°C
Wind Press
QNH
hPa
Press
MSL
hPa
Rain since
9am
mm
Dir  Spd
km/h
Gust
km/h
Spd
kts
Gust
kts
26/11:30pm -19.1 -27.0 -23.8 66 - ENE 22 28 12 15 985.7 - -
26/11:00pm -19.2 -26.7 -23.9 66 - E 20 26 11 14 985.6 - -
26/10:30pm -19.3 -26.8 -23.7 68 - ENE 20 28 11 15 985.4 - -
26/10:00pm -19.5 -27.0 -23.6 70 - E 20 26 11 14 985.2 985.5 -
26/09:30pm -19.8 -27.3 -24.3 67 - E 20 28 11 15 985.1 - -
26/09:00pm -19.8 -28.1 -24.8 64 - E 24 35 13 19 985.0 - -
26/08:30pm -20.0 -28.3 -25.2 63 - ENE 24 32 13 17 984.8 - -
26/08:00pm -19.4 -29.4 -25.0 61 - NE 33 43 18 23 984.6 - -
26/07:53pm -20.0 -29.1 -24.9 65 - NE 28 43 15 23 984.6 - -
26/07:30pm -21.5 -27.0 -27.3 59 - ESE 9 15 5 8 984.8 - -
26/07:00pm -20.5 -28.4 -26.4 59 - ENE 22 30 12 16 984.6 984.9 -
26/06:30pm -20.6 -29.3 -26.3 60 - ENE 26 32 14 17 984.6 - -
26/06:00pm -21.1 -29.4 -26.4 62 - ENE 24 26 13 14 984.7 - -
26/05:30pm -21.5 -29.8 -27.2 60 - ENE 24 28 13 15 984.6 - -
26/05:00pm -21.9 -30.6 -27.5 60 - ENE 26 32 14 17 984.6 - -
26/04:30pm -22.2 -29.8 -27.6 61 - E 20 26 11 14 984.7 - -
26/04:00pm -21.7 -29.1 -27.5 59 - E 19 24 10 13 984.4 984.7 -
26/03:30pm -21.7 -29.1 -27.2 61 - E 19 22 10 12 984.4 - -

Other Formats:

Comma delimited format used in spreadsheet applications
http://www.bom.gov.au/fwo/IDT60803/IDT60803.89571.axf

JavaScript Object Notation format (JSON) in row-major order
http://www.bom.gov.au/fwo/IDT60803/IDT60803.89571.json